sensor_id;sensor_type;location;lat;lon;timestamp;pressure;altitude;pressure_sealevel;temperature;humidity
62333;BME280;48624;49.812;8.562;2023-02-18T00:01:40;101408.78;;;11.86;100.00
62333;BME280;48624;49.812;8.562;2023-02-18T00:04:06;101407.72;;;11.58;100.00
62333;BME280;48624;49.812;8.562;2023-02-18T00:06:33;101402.31;;;11.60;100.00
62333;BME280;48624;49.812;8.562;2023-02-18T00:09:00;101410.47;;;11.41;100.00
62333;BME280;48624;49.812;8.562;2023-02-18T00:11:31;101409.00;;;11.51;100.00
62333;BME280;48624;49.812;8.562;2023-02-18T00:13:58;101414.06;;;11.40;100.00
62333;BME280;48624;49.812;8.562;2023-02-18T00:16:25;101408.22;;;11.49;100.00
62333;BME280;48624;49.812;8.562;2023-02-18T00:18:54;101409.53;;;11.58;100.00
62333;BME280;48624;49.812;8.562;2023-02-18T00:21:20;101403.44;;;11.23;100.00
62333;BME280;48624;49.812;8.562;2023-02-18T00:23:46;101412.44;;;11.53;100.00
62333;BME280;48624;49.812;8.562;2023-02-18T00:26:14;101409.00;;;11.51;100.00
62333;BME280;48624;49.812;8.562;2023-02-18T00:28:40;101406.59;;;11.46;100.00
62333;BME280;48624;49.812;8.562;2023-02-18T00:31:07;101405.59;;;11.17;100.00
62333;BME280;48624;49.812;8.562;2023-02-18T00:33:33;101400.88;;;11.38;100.00
62333;BME280;48624;49.812;8.562;2023-02-18T00:36:07;101401.56;;;11.26;100.00
62333;BME280;48624;49.812;8.562;2023-02-18T00:38:33;101397.78;;;11.14;100.00
62333;BME280;48624;49.812;8.562;2023-02-18T00:40:59;101410.38;;;11.42;100.00
62333;BME280;48624;49.812;8.562;2023-02-18T00:43:24;101399.09;;;11.22;100.00
62333;BME280;48624;49.812;8.562;2023-02-18T00:45:50;101399.94;;;11.07;100.00
62333;BME280;48624;49.812;8.562;2023-02-18T00:48:15;101396.50;;;11.37;100.00
62333;BME280;48624;49.812;8.562;2023-02-18T00:50:40;101397.72;;;11.15;100.00
62333;BME280;48624;49.812;8.562;2023-02-18T00:53:06;101408.00;;;11.21;100.00
62333;BME280;48624;49.812;8.562;2023-02-18T00:55:38;101399.09;;;11.06;100.00
62333;BME280;48624;49.812;8.562;2023-02-18T00:58:04;101400.34;;;10.99;100.00
62333;BME280;48624;49.812;8.562;2023-02-18T01:00:29;101405.91;;;11.27;100.00
62333;BME280;48624;49.812;8.562;2023-02-18T01:02:54;101409.78;;;11.05;100.00
62333;BME280;48624;49.812;8.562;2023-02-18T01:05:20;101412.09;;;11.27;100.00
62333;BME280;48624;49.812;8.562;2023-02-18T01:07:46;101417.03;;;11.33;100.00
62333;BME280;48624;49.812;8.562;2023-02-18T01:10:12;101414.94;;;11.40;100.00
62333;BME280;48624;49.812;8.562;2023-02-18T01:12:37;101419.53;;;11.36;100.00
62333;BME280;48624;49.812;8.562;2023-02-18T01:15:05;101428.53;;;11.34;100.00
62333;BME280;48624;49.812;8.562;2023-02-18T01:17:30;101417.41;;;11.43;100.00
62333;BME280;48624;49.812;8.562;2023-02-18T01:19:56;101413.81;;;11.44;100.00
62333;BME280;48624;49.812;8.562;2023-02-18T01:22:21;101414.06;;;11.07;100.00
62333;BME280;48624;49.812;8.562;2023-02-18T01:24:47;101409.09;;;11.17;100.00
62333;BME280;48624;49.812;8.562;2023-02-18T01:27:12;101412.34;;;11.06;100.00
62333;BME280;48624;49.812;8.562;2023-02-18T01:29:38;101416.38;;;11.30;100.00
62333;BME280;48624;49.812;8.562;2023-02-18T01:32:03;101413.34;;;11.52;100.00
62333;BME280;48624;49.812;8.562;2023-02-18T01:34:28;101419.63;;;11.35;100.00
62333;BME280;48624;49.812;8.562;2023-02-18T01:36:54;101410.47;;;11.24;100.00
62333;BME280;48624;49.812;8.562;2023-02-18T01:39:20;101408.31;;;11.31;100.00
62333;BME280;48624;49.812;8.562;2023-02-18T01:41:45;101401.91;;;11.35;100.00
62333;BME280;48624;49.812;8.562;2023-02-18T01:44:20;101405.84;;;11.44;100.00
62333;BME280;48624;49.812;8.562;2023-02-18T01:46:48;101394.22;;;11.31;100.00
62333;BME280;48624;49.812;8.562;2023-02-18T01:49:30;101397.44;;;11.36;100.00
62333;BME280;48624;49.812;8.562;2023-02-18T01:52:09;101402.19;;;11.31;100.00
62333;BME280;48624;49.812;8.562;2023-02-18T01:54:51;101400.63;;;11.10;100.00
62333;BME280;48624;49.812;8.562;2023-02-18T01:57:22;101401.81;;;11.21;100.00
62333;BME280;48624;49.812;8.562;2023-02-18T01:59:55;101400.38;;;11.31;100.00
62333;BME280;48624;49.812;8.562;2023-02-18T02:02:24;101387.53;;;11.23;100.00
62333;BME280;48624;49.812;8.562;2023-02-18T02:04:53;101368.97;;;11.23;100.00
62333;BME280;48624;49.812;8.562;2023-02-18T02:07:22;101379.13;;;11.31;100.00
62333;BME280;48624;49.812;8.562;2023-02-18T02:09:49;101374.78;;;11.14;100.00
62333;BME280;48624;49.812;8.562;2023-02-18T02:15:02;101370.84;;;11.05;100.00
62333;BME280;48624;49.812;8.562;2023-02-18T02:17:48;101361.53;;;11.14;100.00
62333;BME280;48624;49.812;8.562;2023-02-18T02:29:42;101348.16;;;10.83;100.00
62333;BME280;48624;49.812;8.562;2023-02-18T02:38:11;101351.25;;;10.76;100.00
62333;BME280;48624;49.812;8.562;2023-02-18T02:40:32;101342.53;;;10.90;100.00
62333;BME280;48624;49.812;8.562;2023-02-18T02:46:34;101345.69;;;10.96;100.00
62333;BME280;48624;49.812;8.562;2023-02-18T02:49:12;101338.25;;;11.03;100.00
62333;BME280;48624;49.812;8.562;2023-02-18T02:51:46;101343.91;;;10.97;100.00
62333;BME280;48624;49.812;8.562;2023-02-18T02:54:20;101327.81;;;11.00;100.00
62333;BME280;48624;49.812;8.562;2023-02-18T02:56:46;101317.13;;;11.02;100.00
62333;BME280;48624;49.812;8.562;2023-02-18T02:59:16;101312.69;;;10.86;100.00
62333;BME280;48624;49.812;8.562;2023-02-18T03:02:08;101322.53;;;10.84;100.00
62333;BME280;48624;49.812;8.562;2023-02-18T03:04:47;101322.84;;;10.78;100.00
62333;BME280;48624;49.812;8.562;2023-02-18T03:07:32;101318.66;;;10.90;100.00
62333;BME280;48624;49.812;8.562;2023-02-18T03:13:20;101325.41;;;11.12;100.00
62333;BME280;48624;49.812;8.562;2023-02-18T03:16:07;101319.00;;;11.00;100.00
62333;BME280;48624;49.812;8.562;2023-02-18T03:18:39;101319.00;;;11.16;100.00
62333;BME280;48624;49.812;8.562;2023-02-18T03:21:08;101318.84;;;11.19;100.00
62333;BME280;48624;49.812;8.562;2023-02-18T03:23:52;101317.47;;;11.12;100.00
62333;BME280;48624;49.812;8.562;2023-02-18T03:26:19;101321.56;;;11.17;100.00
62333;BME280;48624;49.812;8.562;2023-02-18T03:28:48;101322.69;;;11.13;100.00
62333;BME280;48624;49.812;8.562;2023-02-18T03:31:17;101310.72;;;11.06;100.00
62333;BME280;48624;49.812;8.562;2023-02-18T03:33:48;101308.41;;;11.16;100.00
62333;BME280;48624;49.812;8.562;2023-02-18T03:36:17;101312.03;;;11.45;100.00
62333;BME280;48624;49.812;8.562;2023-02-18T03:38:58;101314.56;;;11.16;100.00
62333;BME280;48624;49.812;8.562;2023-02-18T03:41:26;101313.13;;;10.94;100.00
62333;BME280;48624;49.812;8.562;2023-02-18T03:44:00;101314.94;;;11.41;100.00
62333;BME280;48624;49.812;8.562;2023-02-18T03:46:27;101317.06;;;11.50;99.21
62333;BME280;48624;49.812;8.562;2023-02-18T03:48:53;101315.84;;;11.09;100.00
62333;BME280;48624;49.812;8.562;2023-02-18T03:51:19;101321.16;;;11.25;100.00
62333;BME280;48624;49.812;8.562;2023-02-18T03:53:44;101314.00;;;11.42;99.40
62333;BME280;48624;49.812;8.562;2023-02-18T03:56:10;101323.63;;;11.28;100.00
62333;BME280;48624;49.812;8.562;2023-02-18T03:58:35;101316.75;;;11.40;99.91
62333;BME280;48624;49.812;8.562;2023-02-18T04:01:01;101314.78;;;11.44;98.46
62333;BME280;48624;49.812;8.562;2023-02-18T04:03:26;101321.28;;;11.38;99.49
62333;BME280;48624;49.812;8.562;2023-02-18T04:05:51;101314.13;;;11.24;100.00
62333;BME280;48624;49.812;8.562;2023-02-18T04:08:17;101319.53;;;11.22;100.00
62333;BME280;48624;49.812;8.562;2023-02-18T04:10:43;101317.72;;;11.39;99.22
62333;BME280;48624;49.812;8.562;2023-02-18T04:13:09;101328.16;;;11.26;100.00
62333;BME280;48624;49.812;8.562;2023-02-18T04:15:34;101324.91;;;11.21;100.00
62333;BME280;48624;49.812;8.562;2023-02-18T04:17:59;101317.88;;;11.20;99.98
62333;BME280;48624;49.812;8.562;2023-02-18T04:20:24;101310.78;;;11.04;100.00
62333;BME280;48624;49.812;8.562;2023-02-18T04:22:50;101310.72;;;11.06;100.00
62333;BME280;48624;49.812;8.562;2023-02-18T04:25:18;101306.03;;;11.11;100.00
62333;BME280;48624;49.812;8.562;2023-02-18T04:27:43;101308.50;;;10.98;100.00
62333;BME280;48624;49.812;8.562;2023-02-18T04:30:09;101310.03;;;11.02;100.00
62333;BME280;48624;49.812;8.562;2023-02-18T04:32:34;101306.56;;;11.32;99.64
62333;BME280;48624;49.812;8.562;2023-02-18T04:34:59;101307.97;;;11.07;100.00
62333;BME280;48624;49.812;8.562;2023-02-18T04:37:25;101306.09;;;11.09;100.00
62333;BME280;48624;49.812;8.562;2023-02-18T04:39:50;101312.25;;;11.10;100.00
62333;BME280;48624;49.812;8.562;2023-02-18T04:42:15;101307.63;;;10.98;100.00
62333;BME280;48624;49.812;8.562;2023-02-18T04:44:41;101302.25;;;10.99;100.00
62333;BME280;48624;49.812;8.562;2023-02-18T04:47:07;101304.38;;;11.08;100.00
62333;BME280;48624;49.812;8.562;2023-02-18T04:49:33;101296.94;;;11.15;99.13
62333;BME280;48624;49.812;8.562;2023-02-18T04:51:58;101295.31;;;10.96;99.97
62333;BME280;48624;49.812;8.562;2023-02-18T04:54:24;101296.25;;;10.95;99.36
62333;BME280;48624;49.812;8.562;2023-02-18T04:56:49;101300.13;;;10.90;99.00
62333;BME280;48624;49.812;8.562;2023-02-18T04:59:15;101310.44;;;11.10;97.67
62333;BME280;48624;49.812;8.562;2023-02-18T05:01:41;101309.78;;;10.91;98.03
62333;BME280;48624;49.812;8.562;2023-02-18T05:04:06;101314.75;;;10.97;97.87
62333;BME280;48624;49.812;8.562;2023-02-18T05:06:32;101314.47;;;10.86;96.98
62333;BME280;48624;49.812;8.562;2023-02-18T05:08:57;101321.00;;;10.96;96.44
62333;BME280;48624;49.812;8.562;2023-02-18T05:11:22;101311.75;;;10.87;95.96
62333;BME280;48624;49.812;8.562;2023-02-18T05:13:47;101313.78;;;11.14;94.79
62333;BME280;48624;49.812;8.562;2023-02-18T05:16:13;101308.81;;;11.08;95.09
62333;BME280;48624;49.812;8.562;2023-02-18T05:18:38;101309.69;;;10.92;94.06
62333;BME280;48624;49.812;8.562;2023-02-18T05:21:04;101302.31;;;10.98;94.04
62333;BME280;48624;49.812;8.562;2023-02-18T05:23:30;101300.81;;;10.93;91.79
62333;BME280;48624;49.812;8.562;2023-02-18T05:25:55;101300.81;;;10.93;92.64
62333;BME280;48624;49.812;8.562;2023-02-18T05:28:21;101295.31;;;10.80;92.97
62333;BME280;48624;49.812;8.562;2023-02-18T05:30:46;101284.97;;;10.92;92.98
62333;BME280;48624;49.812;8.562;2023-02-18T05:33:12;101293.50;;;10.81;92.68
62333;BME280;48624;49.812;8.562;2023-02-18T05:35:37;101295.75;;;10.89;92.04
62333;BME280;48624;49.812;8.562;2023-02-18T05:38:02;101294.78;;;11.06;90.28
62333;BME280;48624;49.812;8.562;2023-02-18T05:40:28;101286.78;;;11.07;90.46
62333;BME280;48624;49.812;8.562;2023-02-18T05:42:53;101279.50;;;10.95;90.86
62333;BME280;48624;49.812;8.562;2023-02-18T05:45:19;101266.50;;;11.06;89.99
62333;BME280;48624;49.812;8.562;2023-02-18T05:47:46;101271.84;;;11.21;87.59
62333;BME280;48624;49.812;8.562;2023-02-18T05:50:11;101283.44;;;11.04;88.50
62333;BME280;48624;49.812;8.562;2023-02-18T05:52:37;101272.63;;;11.07;87.78
62333;BME280;48624;49.812;8.562;2023-02-18T05:55:02;101264.00;;;11.19;86.84
62333;BME280;48624;49.812;8.562;2023-02-18T05:57:28;101263.22;;;11.17;85.04
62333;BME280;48624;49.812;8.562;2023-02-18T05:59:54;101282.31;;;11.08;83.78
62333;BME280;48624;49.812;8.562;2023-02-18T06:02:20;101282.31;;;11.08;81.99
62333;BME280;48624;49.812;8.562;2023-02-18T06:04:45;101281.44;;;11.23;80.27
62333;BME280;48624;49.812;8.562;2023-02-18T06:07:10;101278.72;;;11.25;80.85
62333;BME280;48624;49.812;8.562;2023-02-18T06:09:35;101282.38;;;11.22;81.14
62333;BME280;48624;49.812;8.562;2023-02-18T06:12:02;101273.66;;;11.20;80.57
62333;BME280;48624;49.812;8.562;2023-02-18T06:14:28;101266.81;;;11.16;80.76
62333;BME280;48624;49.812;8.562;2023-02-18T06:16:53;101270.00;;;11.07;81.59
62333;BME280;48624;49.812;8.562;2023-02-18T06:19:18;101267.19;;;11.41;79.60
62333;BME280;48624;49.812;8.562;2023-02-18T06:21:43;101260.78;;;10.98;81.35
62333;BME280;48624;49.812;8.562;2023-02-18T06:24:09;101264.09;;;11.02;81.41
62333;BME280;48624;49.812;8.562;2023-02-18T06:26:34;101270.75;;;11.09;80.89
62333;BME280;48624;49.812;8.562;2023-02-18T06:29:00;101262.91;;;11.07;81.42
62333;BME280;48624;49.812;8.562;2023-02-18T06:31:25;101267.81;;;10.83;82.46
62333;BME280;48624;49.812;8.562;2023-02-18T06:33:52;101260.56;;;11.17;80.33
62333;BME280;48624;49.812;8.562;2023-02-18T06:36:18;101269.75;;;10.95;81.32
62333;BME280;48624;49.812;8.562;2023-02-18T06:38:44;101269.91;;;11.08;81.92
62333;BME280;48624;49.812;8.562;2023-02-18T06:41:10;101268.03;;;10.94;81.59
62333;BME280;48624;49.812;8.562;2023-02-18T06:43:36;101278.56;;;10.80;83.15
62333;BME280;48624;49.812;8.562;2023-02-18T06:46:03;101283.69;;;10.99;83.30
62333;BME280;48624;49.812;8.562;2023-02-18T06:48:28;101282.50;;;11.05;82.33
62333;BME280;48624;49.812;8.562;2023-02-18T06:50:55;101277.84;;;11.24;81.72
62333;BME280;48624;49.812;8.562;2023-02-18T06:53:21;101286.09;;;11.04;82.44
62333;BME280;48624;49.812;8.562;2023-02-18T06:55:47;101284.00;;;11.09;82.72
62333;BME280;48624;49.812;8.562;2023-02-18T06:58:14;101275.78;;;11.14;83.10
62333;BME280;48624;49.812;8.562;2023-02-18T07:00:40;101268.28;;;11.06;83.30
62333;BME280;48624;49.812;8.562;2023-02-18T07:03:07;101268.06;;;11.41;82.65
62333;BME280;48624;49.812;8.562;2023-02-18T07:05:33;101266.75;;;11.02;84.60
62333;BME280;48624;49.812;8.562;2023-02-18T07:07:58;101263.06;;;11.20;83.91
62333;BME280;48624;49.812;8.562;2023-02-18T07:10:24;101271.72;;;11.38;83.32
62333;BME280;48624;49.812;8.562;2023-02-18T07:12:49;101260.25;;;11.07;84.42
62333;BME280;48624;49.812;8.562;2023-02-18T07:15:15;101253.13;;;11.24;83.56
62333;BME280;48624;49.812;8.562;2023-02-18T07:17:40;101252.59;;;11.17;84.19
62333;BME280;48624;49.812;8.562;2023-02-18T07:20:06;101249.53;;;11.09;83.56
62333;BME280;48624;49.812;8.562;2023-02-18T07:22:35;101238.09;;;11.08;83.81
62333;BME280;48624;49.812;8.562;2023-02-18T07:25:00;101232.56;;;11.28;82.88
62333;BME280;48624;49.812;8.562;2023-02-18T07:27:26;101229.59;;;11.18;83.81
62333;BME280;48624;49.812;8.562;2023-02-18T07:29:51;101238.25;;;11.21;83.65
62333;BME280;48624;49.812;8.562;2023-02-18T07:32:18;101225.66;;;11.09;84.12
62333;BME280;48624;49.812;8.562;2023-02-18T07:34:43;101233.06;;;11.04;84.68
62333;BME280;48624;49.812;8.562;2023-02-18T07:37:09;101233.06;;;11.04;84.30
62333;BME280;48624;49.812;8.562;2023-02-18T07:39:38;101230.56;;;11.17;83.36
62333;BME280;48624;49.812;8.562;2023-02-18T07:42:04;101229.91;;;11.28;82.74
62333;BME280;48624;49.812;8.562;2023-02-18T07:44:29;101236.00;;;11.30;83.05
62333;BME280;48624;49.812;8.562;2023-02-18T07:46:55;101223.09;;;11.23;83.56
62333;BME280;48624;49.812;8.562;2023-02-18T07:49:20;101226.44;;;11.42;82.88
62333;BME280;48624;49.812;8.562;2023-02-18T07:51:47;101229.16;;;11.26;83.57
62333;BME280;48624;49.812;8.562;2023-02-18T07:54:12;101231.22;;;11.20;84.00
62333;BME280;48624;49.812;8.562;2023-02-18T07:56:38;101235.00;;;11.47;83.05
62333;BME280;48624;49.812;8.562;2023-02-18T07:59:04;101233.66;;;11.40;83.58
62333;BME280;48624;49.812;8.562;2023-02-18T08:01:29;101240.69;;;11.24;84.44
62333;BME280;48624;49.812;8.562;2023-02-18T08:03:55;101240.69;;;11.24;84.13
62333;BME280;48624;49.812;8.562;2023-02-18T08:06:33;101237.47;;;11.19;83.23
62333;BME280;48624;49.812;8.562;2023-02-18T08:08:59;101227.53;;;11.23;82.62
62333;BME280;48624;49.812;8.562;2023-02-18T08:11:25;101227.31;;;11.42;81.59
62333;BME280;48624;49.812;8.562;2023-02-18T08:13:50;101237.78;;;11.60;79.90
62333;BME280;48624;49.812;8.562;2023-02-18T08:16:17;101235.66;;;11.50;79.88
62333;BME280;48624;49.812;8.562;2023-02-18T08:18:44;101226.63;;;11.38;79.05
62333;BME280;48624;49.812;8.562;2023-02-18T08:21:12;101232.16;;;11.50;78.87
62333;BME280;48624;49.812;8.562;2023-02-18T08:23:37;101220.19;;;11.88;76.83
62333;BME280;48624;49.812;8.562;2023-02-18T08:26:03;101225.34;;;11.60;77.46
62333;BME280;48624;49.812;8.562;2023-02-18T08:28:28;101219.00;;;11.63;76.79
62333;BME280;48624;49.812;8.562;2023-02-18T08:30:54;101220.72;;;11.64;76.59
62333;BME280;48624;49.812;8.562;2023-02-18T08:33:20;101225.34;;;11.60;77.62
62333;BME280;48624;49.812;8.562;2023-02-18T08:35:49;101225.19;;;11.78;75.76
62333;BME280;48624;49.812;8.562;2023-02-18T08:38:15;101227.38;;;12.00;74.17
62333;BME280;48624;49.812;8.562;2023-02-18T08:40:41;101232.16;;;11.95;74.59
62333;BME280;48624;49.812;8.562;2023-02-18T08:43:06;101231.63;;;11.88;74.68
62333;BME280;48624;49.812;8.562;2023-02-18T08:45:33;101225.91;;;12.11;72.47
62333;BME280;48624;49.812;8.562;2023-02-18T08:47:58;101232.38;;;12.06;71.59
62333;BME280;48624;49.812;8.562;2023-02-18T08:50:24;101239.53;;;12.04;72.86
62333;BME280;48624;49.812;8.562;2023-02-18T08:52:53;101238.06;;;11.70;72.62
62333;BME280;48624;49.812;8.562;2023-02-18T08:55:19;101241.91;;;11.94;70.76
62333;BME280;48624;49.812;8.562;2023-02-18T08:57:46;101236.81;;;11.61;72.22
62333;BME280;48624;49.812;8.562;2023-02-18T09:00:13;101247.44;;;11.61;72.46
62333;BME280;48624;49.812;8.562;2023-02-18T09:02:39;101240.75;;;11.84;70.91
62333;BME280;48624;49.812;8.562;2023-02-18T09:05:04;101245.47;;;11.64;72.71
62333;BME280;48624;49.812;8.562;2023-02-18T09:07:30;101253.25;;;11.68;72.22
62333;BME280;48624;49.812;8.562;2023-02-18T09:09:55;101258.91;;;11.61;72.96
62333;BME280;48624;49.812;8.562;2023-02-18T09:12:20;101252.69;;;11.77;72.93
62333;BME280;48624;49.812;8.562;2023-02-18T09:14:47;101246.41;;;11.63;72.61
62333;BME280;48624;49.812;8.562;2023-02-18T09:17:12;101237.31;;;11.68;72.72
62333;BME280;48624;49.812;8.562;2023-02-18T09:19:38;101244.25;;;11.85;71.62
62333;BME280;48624;49.812;8.562;2023-02-18T09:22:03;101244.28;;;11.99;71.62
62333;BME280;48624;49.812;8.562;2023-02-18T09:24:29;101250.06;;;11.91;70.70
62333;BME280;48624;49.812;8.562;2023-02-18T09:26:54;101247.16;;;12.11;70.53
62333;BME280;48624;49.812;8.562;2023-02-18T09:29:20;101249.88;;;11.94;70.65
62333;BME280;48624;49.812;8.562;2023-02-18T09:31:45;101242.94;;;11.77;72.15
62333;BME280;48624;49.812;8.562;2023-02-18T09:34:10;101253.00;;;11.87;71.76
62333;BME280;48624;49.812;8.562;2023-02-18T09:36:37;101249.88;;;12.09;71.15
62333;BME280;48624;49.812;8.562;2023-02-18T09:39:02;101257.09;;;12.07;71.57
62333;BME280;48624;49.812;8.562;2023-02-18T09:41:33;101256.53;;;12.02;71.78
62333;BME280;48624;49.812;8.562;2023-02-18T09:46:39;101241.19;;;12.21;70.27
62333;BME280;48624;49.812;8.562;2023-02-18T09:49:13;101246.31;;;12.10;70.94
62333;BME280;48624;49.812;8.562;2023-02-18T09:51:40;101250.47;;;12.29;70.14
62333;BME280;48624;49.812;8.562;2023-02-18T09:54:10;101243.81;;;12.36;68.54
62333;BME280;48624;49.812;8.562;2023-02-18T09:56:36;101245.59;;;12.50;68.43
62333;BME280;48624;49.812;8.562;2023-02-18T09:59:04;101235.00;;;12.35;68.60
62333;BME280;48624;49.812;8.562;2023-02-18T10:01:35;101238.13;;;12.28;69.48
62333;BME280;48624;49.812;8.562;2023-02-18T10:04:09;101234.06;;;12.37;67.88
62333;BME280;48624;49.812;8.562;2023-02-18T10:06:37;101227.78;;;12.52;67.69
62333;BME280;48624;49.812;8.562;2023-02-18T10:09:08;101236.63;;;12.24;69.02
62333;BME280;48624;49.812;8.562;2023-02-18T10:11:41;101238.69;;;12.18;69.51
62333;BME280;48624;49.812;8.562;2023-02-18T10:14:12;101244.59;;;12.24;69.34
62333;BME280;48624;49.812;8.562;2023-02-18T10:16:39;101240.22;;;12.23;68.61
62333;BME280;48624;49.812;8.562;2023-02-18T10:19:30;101246.59;;;12.34;68.61
62333;BME280;48624;49.812;8.562;2023-02-18T10:22:00;101256.34;;;12.05;68.64
62333;BME280;48624;49.812;8.562;2023-02-18T10:24:29;101254.81;;;12.44;68.25
62333;BME280;48624;49.812;8.562;2023-02-18T10:26:56;101262.03;;;12.28;68.89
62333;BME280;48624;49.812;8.562;2023-02-18T10:29:23;101253.44;;;12.24;68.41
62333;BME280;48624;49.812;8.562;2023-02-18T10:32:04;101255.22;;;12.24;70.30
62333;BME280;48624;49.812;8.562;2023-02-18T10:40:08;101235.53;;;12.55;68.48
62333;BME280;48624;49.812;8.562;2023-02-18T10:45:32;101243.00;;;12.77;67.51
62333;BME280;48624;49.812;8.562;2023-02-18T10:48:14;101237.03;;;12.74;67.48
62333;BME280;48624;49.812;8.562;2023-02-18T10:50:45;101233.03;;;12.94;66.24
62333;BME280;48624;49.812;8.562;2023-02-18T10:55:54;101235.69;;;12.67;68.38
62333;BME280;48624;49.812;8.562;2023-02-18T11:00:58;101235.91;;;12.63;66.02
62333;BME280;48624;49.812;8.562;2023-02-18T11:08:45;101227.78;;;12.52;65.83
62333;BME280;48624;49.812;8.562;2023-02-18T11:11:25;101237.03;;;12.59;65.81
62333;BME280;48624;49.812;8.562;2023-02-18T11:13:55;101229.03;;;12.32;66.75
62333;BME280;48624;49.812;8.562;2023-02-18T11:16:22;101223.97;;;12.42;66.58
62333;BME280;48624;49.812;8.562;2023-02-18T11:18:48;101224.47;;;12.48;67.81
62333;BME280;48624;49.812;8.562;2023-02-18T11:21:29;101222.41;;;12.67;65.94
62333;BME280;48624;49.812;8.562;2023-02-18T11:23:56;101208.38;;;12.65;65.48
62333;BME280;48624;49.812;8.562;2023-02-18T11:26:33;101209.97;;;12.95;65.22
62333;BME280;48624;49.812;8.562;2023-02-18T11:29:03;101183.44;;;13.21;62.69
62333;BME280;48624;49.812;8.562;2023-02-18T11:31:40;101185.56;;;13.15;64.64
62333;BME280;48624;49.812;8.562;2023-02-18T11:34:14;101197.38;;;13.11;62.08
62333;BME280;48624;49.812;8.562;2023-02-18T11:36:40;101188.25;;;13.41;61.98
62333;BME280;48624;49.812;8.562;2023-02-18T11:41:52;101191.28;;;13.50;61.55
62333;BME280;48624;49.812;8.562;2023-02-18T11:44:23;101172.19;;;13.95;59.81
62333;BME280;48624;49.812;8.562;2023-02-18T11:49:40;101157.38;;;14.41;60.17
62333;BME280;48624;49.812;8.562;2023-02-18T11:52:16;101152.47;;;14.96;57.81
62333;BME280;48624;49.812;8.562;2023-02-18T11:55:04;101151.91;;;14.55;57.18
62333;BME280;48624;49.812;8.562;2023-02-18T11:57:32;101169.66;;;14.68;58.06
62333;BME280;48624;49.812;8.562;2023-02-18T11:59:59;101150.94;;;14.56;57.42
62333;BME280;48624;49.812;8.562;2023-02-18T12:02:33;101152.31;;;14.87;57.84
62333;BME280;48624;49.812;8.562;2023-02-18T12:05:25;101142.81;;;14.58;58.66
62333;BME280;48624;49.812;8.562;2023-02-18T12:07:57;101159.53;;;14.73;57.92
62333;BME280;48624;49.812;8.562;2023-02-18T12:10:47;101145.78;;;14.42;58.64
62333;BME280;48624;49.812;8.562;2023-02-18T12:13:25;101158.38;;;13.90;59.37
62333;BME280;48624;49.812;8.562;2023-02-18T12:18:40;101156.56;;;13.77;60.69
62333;BME280;48624;49.812;8.562;2023-02-18T12:21:31;101156.16;;;13.57;61.65
62333;BME280;48624;49.812;8.562;2023-02-18T12:24:09;101149.44;;;13.65;60.84
62333;BME280;48624;49.812;8.562;2023-02-18T12:26:49;101149.94;;;13.31;61.67
62333;BME280;48624;49.812;8.562;2023-02-18T12:32:04;101127.09;;;12.88;63.48
62333;BME280;48624;49.812;8.562;2023-02-18T12:37:08;101126.03;;;13.03;62.44
62333;BME280;48624;49.812;8.562;2023-02-18T12:43:11;101118.69;;;12.94;63.43
62333;BME280;48624;49.812;8.562;2023-02-18T12:45:44;101109.31;;;12.88;63.98
62333;BME280;48624;49.812;8.562;2023-02-18T12:51:06;101101.94;;;12.79;64.21
62333;BME280;48624;49.812;8.562;2023-02-18T12:54:02;101088.06;;;13.01;64.00
62333;BME280;48624;49.812;8.562;2023-02-18T13:11:18;101086.53;;;12.71;65.24
62333;BME280;48624;49.812;8.562;2023-02-18T13:13:25;101089.34;;;13.09;63.70
62333;BME280;48624;49.812;8.562;2023-02-18T13:16:10;101095.09;;;13.02;63.66
62333;BME280;48624;49.812;8.562;2023-02-18T13:18:40;101081.72;;;12.63;65.15
62333;BME280;48624;49.812;8.562;2023-02-18T13:21:10;101090.28;;;12.95;63.72
62333;BME280;48624;49.812;8.562;2023-02-18T13:24:01;101109.88;;;12.94;64.13
62333;BME280;48624;49.812;8.562;2023-02-18T13:26:30;101096.56;;;12.94;63.75
62333;BME280;48624;49.812;8.562;2023-02-18T13:32:00;101089.34;;;13.09;63.16
62333;BME280;48624;49.812;8.562;2023-02-18T13:34:34;101088.50;;;12.95;63.62
62333;BME280;48624;49.812;8.562;2023-02-18T13:37:27;101086.56;;;12.84;64.01
62333;BME280;48624;49.812;8.562;2023-02-18T13:39:56;101097.09;;;12.86;64.19
62333;BME280;48624;49.812;8.562;2023-02-18T13:42:29;101087.00;;;12.51;65.29
62333;BME280;48624;49.812;8.562;2023-02-18T13:47:42;101086.59;;;13.36;62.45
62333;BME280;48624;49.812;8.562;2023-02-18T13:52:47;101090.78;;;12.74;65.62
62333;BME280;48624;49.812;8.562;2023-02-18T13:55:21;101084.88;;;12.56;66.34
62333;BME280;48624;49.812;8.562;2023-02-18T13:57:48;101090.75;;;12.61;67.17
62333;BME280;48624;49.812;8.562;2023-02-18T14:00:34;101096.06;;;12.61;67.30
62333;BME280;48624;49.812;8.562;2023-02-18T14:03:19;101096.28;;;12.58;67.38
62333;BME280;48624;49.812;8.562;2023-02-18T14:05:44;101088.31;;;12.58;67.02
62333;BME280;48624;49.812;8.562;2023-02-18T14:08:30;101089.53;;;12.39;67.73
62333;BME280;48624;49.812;8.562;2023-02-18T14:13:54;101104.16;;;12.32;68.04
62333;BME280;48624;49.812;8.562;2023-02-18T14:17:12;101110.16;;;12.21;69.22
62333;BME280;48624;49.812;8.562;2023-02-18T14:19:39;101101.44;;;12.19;68.91
62333;BME280;48624;49.812;8.562;2023-02-18T14:24:56;101092.78;;;12.30;68.34
62333;BME280;48624;49.812;8.562;2023-02-18T14:27:24;101094.66;;;12.28;69.57
62333;BME280;48624;49.812;8.562;2023-02-18T14:29:51;101108.50;;;12.33;69.36
62333;BME280;48624;49.812;8.562;2023-02-18T14:32:18;101102.28;;;12.19;69.69